createdAt,value
2018-09-11T00:00:24.950Z,2.70
2018-09-11T00:02:54.230Z,2.70
2018-09-11T00:05:23.616Z,2.70
2018-09-11T00:07:53.445Z,2.93
2018-09-11T00:10:23.400Z,2.70
2018-09-11T00:12:52.651Z,2.53
2018-09-11T00:15:21.872Z,3.07
2018-09-11T00:17:51.185Z,2.53
2018-09-11T00:20:20.536Z,2.80
2018-09-11T00:22:49.834Z,2.70
2018-09-11T00:25:19.225Z,2.80
2018-09-11T00:27:48.506Z,2.40
2018-09-11T00:30:17.852Z,2.70
2018-09-11T00:32:47.026Z,2.90
2018-09-11T00:35:16.210Z,3.13
2018-09-11T00:37:45.831Z,2.70
2018-09-11T00:40:15.065Z,2.50
2018-09-11T00:42:44.300Z,2.97
2018-09-11T00:45:13.619Z,3.20
2018-09-11T00:47:42.824Z,2.73
2018-09-11T00:50:12.124Z,2.90
2018-09-11T00:52:41.391Z,2.83
2018-09-11T00:55:10.751Z,2.83
2018-09-11T00:57:40.026Z,2.43
2018-09-11T01:00:09.376Z,2.70
2018-09-11T01:02:38.828Z,3.10
2018-09-11T01:05:08.104Z,2.80
2018-09-11T01:07:37.331Z,2.97
2018-09-11T01:10:08.735Z,2.80
2018-09-11T01:12:38.060Z,2.90
2018-09-11T01:15:08.915Z,3.00
2018-09-11T01:17:38.577Z,2.90
2018-09-11T01:20:08.592Z,2.77
2018-09-11T01:22:37.862Z,2.63
2018-09-11T01:25:07.143Z,2.83
2018-09-11T01:27:37.160Z,2.83
2018-09-11T01:30:07.203Z,2.67
2018-09-11T01:32:36.505Z,2.60
2018-09-11T01:35:05.883Z,2.80
2018-09-11T01:37:35.152Z,2.70
2018-09-11T01:40:04.490Z,2.87
2018-09-11T01:42:33.717Z,3.10
2018-09-11T01:45:03.035Z,2.70
2018-09-11T01:47:32.362Z,2.60
2018-09-11T01:50:01.631Z,3.20
2018-09-11T01:52:30.927Z,3.10
2018-09-11T01:55:00.201Z,3.00
2018-09-11T01:57:29.492Z,2.90
2018-09-11T01:59:58.681Z,3.00
2018-09-11T02:02:28.604Z,2.70
2018-09-11T02:04:57.879Z,3.00
2018-09-11T02:07:27.145Z,3.07
2018-09-11T02:09:56.366Z,3.20
2018-09-11T02:12:25.643Z,3.23
2018-09-11T02:14:54.852Z,3.33
2018-09-11T02:17:24.150Z,3.13
2018-09-11T02:19:53.519Z,3.20
2018-09-11T02:22:22.806Z,3.30
2018-09-11T02:24:52.008Z,2.90
2018-09-11T02:27:21.299Z,2.93
2018-09-11T02:29:50.531Z,3.00
2018-09-11T02:32:19.788Z,2.80
2018-09-11T02:34:49.060Z,3.10
2018-09-11T02:37:18.319Z,3.07
2018-09-11T02:39:47.591Z,2.97
2018-09-11T02:42:16.928Z,2.97
2018-09-11T02:44:46.179Z,3.10
2018-09-11T02:47:15.480Z,3.07
2018-09-11T02:49:45.704Z,2.80
2018-09-11T02:52:15.454Z,2.90
2018-09-11T02:54:45.151Z,3.00
2018-09-11T02:57:14.412Z,3.17
2018-09-11T02:59:43.706Z,3.20
2018-09-11T03:02:13.054Z,3.50
2018-09-11T03:04:42.256Z,2.90
2018-09-11T03:07:11.464Z,3.40
2018-09-11T03:09:40.668Z,3.13
2018-09-11T03:12:09.979Z,3.30
2018-09-11T03:14:39.127Z,3.20
2018-09-11T03:17:08.587Z,2.97
2018-09-11T03:19:38.499Z,3.27
2018-09-11T03:22:07.807Z,3.13
2018-09-11T03:24:37.031Z,3.67
2018-09-11T03:27:06.343Z,3.27
2018-09-11T03:29:35.479Z,3.30
2018-09-11T03:32:04.732Z,3.13
2018-09-11T03:34:33.894Z,3.17
2018-09-11T03:37:03.418Z,3.47
2018-09-11T03:39:32.759Z,3.20
2018-09-11T03:42:01.972Z,2.90
2018-09-11T03:44:31.228Z,3.03
2018-09-11T03:47:00.443Z,2.90
2018-09-11T03:49:29.825Z,3.20
2018-09-11T03:51:59.187Z,3.30
2018-09-11T03:54:28.482Z,3.20
2018-09-11T03:56:57.731Z,3.33
2018-09-11T03:59:26.993Z,3.50
2018-09-11T04:01:56.229Z,3.20
2018-09-11T04:04:25.472Z,3.20
2018-09-11T04:06:54.693Z,3.03
2018-09-11T04:09:23.904Z,3.33
2018-09-11T04:11:53.130Z,3.37
2018-09-11T04:14:22.362Z,3.90
2018-09-11T04:16:52.271Z,4.40
2018-09-11T04:19:21.536Z,4.37
2018-09-11T04:21:50.714Z,4.43
2018-09-11T04:24:19.993Z,4.20
2018-09-11T04:26:49.284Z,3.77
2018-09-11T04:29:18.659Z,3.40
2018-09-11T04:31:47.976Z,3.90
2018-09-11T04:34:17.411Z,3.80
2018-09-11T04:36:46.628Z,3.90
2018-09-11T04:39:16.542Z,3.97
2018-09-11T04:41:45.868Z,4.33
2018-09-11T04:44:15.132Z,4.30
2018-09-11T04:46:44.327Z,4.20
2018-09-11T04:49:13.643Z,4.20
2018-09-11T04:51:42.899Z,4.20
2018-09-11T04:54:12.800Z,4.03
2018-09-11T04:56:42.004Z,4.13
2018-09-11T04:59:11.236Z,4.10
2018-09-11T05:01:40.451Z,4.20
2018-09-11T05:04:09.695Z,4.40
2018-09-11T05:06:38.876Z,4.20
2018-09-11T05:09:10.479Z,4.53
2018-09-11T05:11:39.917Z,4.43
2018-09-11T05:14:09.318Z,4.10
2018-09-11T05:16:38.543Z,4.13
2018-09-11T05:19:07.794Z,3.97
2018-09-11T05:21:36.991Z,4.33
2018-09-11T05:24:06.195Z,4.53
2018-09-11T05:26:35.421Z,4.10
2018-09-11T05:29:04.684Z,3.90
2018-09-11T05:31:33.954Z,4.10
2018-09-11T05:34:03.192Z,4.33
2018-09-11T05:36:32.382Z,4.43
2018-09-11T05:39:01.767Z,4.73
2018-09-11T05:41:31.024Z,4.37
2018-09-11T05:44:00.248Z,4.77
2018-09-11T05:46:29.471Z,5.50
2018-09-11T05:48:58.680Z,5.30
2018-09-11T05:51:28.115Z,5.33
2018-09-11T05:53:57.439Z,5.30
2018-09-11T05:56:26.634Z,5.30
2018-09-11T05:58:55.920Z,5.23
2018-09-11T06:01:25.215Z,5.10
2018-09-11T06:03:54.405Z,5.10
2018-09-11T06:06:23.671Z,5.50
2018-09-11T06:08:52.904Z,5.37
2018-09-11T06:11:22.163Z,5.27
2018-09-11T06:13:51.768Z,5.33
2018-09-11T06:16:21.096Z,5.33
2018-09-11T06:18:50.299Z,5.43
2018-09-11T06:21:19.529Z,5.30
2018-09-11T06:23:48.716Z,5.70
2018-09-11T06:26:18.052Z,5.87
2018-09-11T06:28:47.327Z,5.53
2018-09-11T06:31:16.570Z,5.87
2018-09-11T06:33:45.770Z,5.60
2018-09-11T06:36:15.028Z,6.07
2018-09-11T06:38:47.507Z,5.60
2018-09-11T06:41:16.854Z,5.63
2018-09-11T06:43:46.076Z,5.63
2018-09-11T06:46:15.399Z,5.93
2018-09-11T06:48:44.620Z,6.13
2018-09-11T06:51:13.950Z,5.97
2018-09-11T06:53:43.203Z,5.73
2018-09-11T06:56:12.448Z,6.17
2018-09-11T06:58:41.697Z,5.20
2018-09-11T07:01:10.931Z,5.17
2018-09-11T07:03:40.118Z,5.47
2018-09-11T07:06:09.402Z,4.90
2018-09-11T07:08:38.848Z,5.03
2018-09-11T07:11:08.006Z,5.30
2018-09-11T07:13:37.251Z,6.00
2018-09-11T07:16:06.528Z,6.00
2018-09-11T07:18:35.836Z,6.17
2018-09-11T07:21:05.112Z,6.30
2018-09-11T07:23:34.382Z,5.70
2018-09-11T07:26:03.675Z,5.30
2018-09-11T07:28:32.909Z,5.30
2018-09-11T07:31:02.183Z,5.17
2018-09-11T07:33:31.505Z,5.83
2018-09-11T07:36:00.838Z,4.97
2018-09-11T07:38:29.985Z,5.33
2018-09-11T07:40:59.339Z,4.70
2018-09-11T07:43:28.604Z,4.57
2018-09-11T07:45:57.852Z,5.00
2018-09-11T07:48:27.106Z,5.27
2018-09-11T07:50:56.383Z,4.53
2018-09-11T07:53:25.649Z,3.93
2018-09-11T07:55:55.369Z,4.33
2018-09-11T07:58:24.668Z,4.60
2018-09-11T08:00:53.984Z,4.23
2018-09-11T08:03:23.265Z,4.10
2018-09-11T08:05:52.512Z,4.00
2018-09-11T08:08:21.919Z,3.67
2018-09-11T08:10:51.243Z,4.13
2018-09-11T08:13:20.598Z,4.37
2018-09-11T08:15:49.875Z,4.23
2018-09-11T08:18:19.211Z,4.20
2018-09-11T08:20:48.502Z,3.97
2018-09-11T08:23:17.687Z,3.93
2018-09-11T08:25:47.004Z,4.27
2018-09-11T08:28:16.239Z,3.70
2018-09-11T08:30:45.467Z,3.70
2018-09-11T08:33:14.703Z,4.10
2018-09-11T08:35:43.948Z,4.03
2018-09-11T08:38:13.135Z,3.53
2018-09-11T08:40:42.448Z,3.83
2018-09-11T08:43:11.712Z,4.10
2018-09-11T08:45:40.903Z,3.87
2018-09-11T08:48:10.071Z,3.83
2018-09-11T08:50:39.275Z,3.40
2018-09-11T08:53:08.792Z,2.90
2018-09-11T08:55:38.088Z,3.00
2018-09-11T08:58:07.391Z,2.97
2018-09-11T09:00:36.669Z,2.80
2018-09-11T09:03:06.080Z,2.80
2018-09-11T09:05:35.252Z,2.30
2018-09-11T09:08:04.508Z,2.60
2018-09-11T09:10:33.738Z,2.57
2018-09-11T09:13:02.971Z,2.97
2018-09-11T09:15:32.224Z,2.47
2018-09-11T09:18:01.465Z,2.70
2018-09-11T09:20:30.703Z,2.47
2018-09-11T09:22:59.975Z,2.70
2018-09-11T09:25:29.206Z,2.50
2018-09-11T09:27:58.424Z,2.53
2018-09-11T09:30:28.590Z,2.97
2018-09-11T09:32:58.036Z,2.67
2018-09-11T09:35:27.235Z,2.43
2018-09-11T09:37:56.485Z,2.57
2018-09-11T09:40:25.667Z,2.90
2018-09-11T09:42:54.948Z,2.63
2018-09-11T09:45:24.267Z,2.57
2018-09-11T09:47:53.517Z,2.60
2018-09-11T09:50:22.761Z,3.13
2018-09-11T09:52:52.063Z,3.40
2018-09-11T09:55:21.311Z,2.70
2018-09-11T09:57:50.587Z,2.40
2018-09-11T10:01:23.219Z,2.93
2018-09-11T10:03:52.547Z,2.40
2018-09-11T10:06:21.815Z,2.90
2018-09-11T10:08:51.162Z,2.50
2018-09-11T10:11:20.447Z,2.50
2018-09-11T10:13:49.922Z,2.53
2018-09-11T10:16:19.167Z,2.60
2018-09-11T10:18:48.471Z,2.10
2018-09-11T10:21:17.863Z,2.60
2018-09-11T10:23:47.166Z,2.60
2018-09-11T10:26:16.394Z,2.30
2018-09-11T10:28:45.656Z,2.40
2018-09-11T10:31:14.903Z,2.57
2018-09-11T10:33:44.274Z,2.57
2018-09-11T10:36:13.475Z,2.20
2018-09-11T10:38:42.814Z,2.13
2018-09-11T10:41:12.100Z,2.37
2018-09-11T10:43:41.334Z,2.43
2018-09-11T10:46:10.605Z,2.50
2018-09-11T10:48:39.872Z,2.47
2018-09-11T10:51:09.107Z,2.23
2018-09-11T10:53:38.371Z,2.23
2018-09-11T10:56:07.826Z,2.73
2018-09-11T10:58:37.051Z,2.27
2018-09-11T11:01:06.297Z,2.83
2018-09-11T11:03:35.551Z,2.50
2018-09-11T11:06:04.759Z,2.40
2018-09-11T11:08:34.039Z,2.20
2018-09-11T11:11:03.257Z,2.30
2018-09-11T11:13:32.523Z,2.50
2018-09-11T11:16:01.720Z,2.43
2018-09-11T11:18:31.011Z,2.43
2018-09-11T11:21:00.272Z,2.30
2018-09-11T11:23:29.511Z,2.40
2018-09-11T11:25:59.031Z,2.23
2018-09-11T11:28:28.303Z,2.10
2018-09-11T11:30:57.519Z,2.20
2018-09-11T11:33:26.779Z,2.17
2018-09-11T11:35:56.037Z,2.67
2018-09-11T11:38:25.783Z,2.20
2018-09-11T11:40:55.015Z,2.20
2018-09-11T11:43:24.740Z,2.17
2018-09-11T11:45:53.975Z,2.30
2018-09-11T11:48:23.262Z,2.20
2018-09-11T11:50:52.455Z,2.15
2018-09-11T11:53:21.768Z,2.10
2018-09-11T11:55:51.092Z,2.40
2018-09-11T11:58:20.331Z,2.02
2018-09-11T12:00:49.555Z,2.10
2018-09-11T12:03:18.876Z,2.57
2018-09-11T12:05:48.159Z,2.20
2018-09-11T12:08:17.381Z,2.27
2018-09-11T12:10:46.673Z,2.33
2018-09-11T12:13:15.840Z,2.30
2018-09-11T12:15:45.120Z,2.50
2018-09-11T12:18:14.398Z,2.20
2018-09-11T12:20:43.611Z,2.55
2018-09-11T12:23:12.922Z,2.35
2018-09-11T12:25:42.483Z,2.15
2018-09-11T12:28:11.734Z,2.10
2018-09-11T12:30:41.000Z,2.30
2018-09-11T12:33:10.263Z,2.35
2018-09-11T12:35:39.571Z,2.10
2018-09-11T12:38:08.780Z,2.02
2018-09-11T12:40:38.077Z,2.15
2018-09-11T12:43:07.327Z,2.45
2018-09-11T12:45:37.081Z,2.22
2018-09-11T12:48:06.753Z,2.50
2018-09-11T12:50:36.108Z,2.27
2018-09-11T12:53:05.471Z,2.50
2018-09-11T12:55:34.734Z,2.40
2018-09-11T12:58:03.904Z,2.27
2018-09-11T13:00:33.200Z,2.50
2018-09-11T13:03:02.466Z,2.40
2018-09-11T13:05:31.679Z,2.10
2018-09-11T13:08:00.924Z,2.72
2018-09-11T13:10:30.188Z,2.27
2018-09-11T13:12:59.471Z,2.30
2018-09-11T13:15:28.791Z,2.60
2018-09-11T13:17:58.032Z,2.33
2018-09-11T13:20:27.250Z,2.40
2018-09-11T13:22:56.443Z,2.30
2018-09-11T13:25:25.746Z,2.55
2018-09-11T13:27:54.943Z,2.17
2018-09-11T13:30:24.287Z,2.15
2018-09-11T13:32:53.571Z,2.37
2018-09-11T13:35:22.895Z,2.33
2018-09-11T13:37:52.032Z,2.75
2018-09-11T13:40:21.207Z,2.45
2018-09-11T13:42:50.371Z,2.27
2018-09-11T13:45:19.556Z,2.30
2018-09-11T13:47:48.784Z,2.33
2018-09-11T13:50:18.020Z,2.42
2018-09-11T13:52:47.290Z,2.90
2018-09-11T13:55:16.516Z,2.35
2018-09-11T13:57:45.777Z,2.20
2018-09-11T14:00:15.072Z,2.25
2018-09-11T14:02:44.429Z,2.60
2018-09-11T14:05:13.553Z,2.15
2018-09-11T14:07:42.744Z,2.55
2018-09-11T14:10:12.032Z,2.17
2018-09-11T14:12:41.319Z,2.30
2018-09-11T14:15:10.600Z,2.37
2018-09-11T14:17:39.842Z,2.37
2018-09-11T14:20:09.198Z,2.47
2018-09-11T14:22:38.447Z,2.33
2018-09-11T14:25:07.764Z,2.60
2018-09-11T14:27:36.947Z,2.50
2018-09-11T14:30:06.606Z,2.42
2018-09-11T14:32:35.847Z,2.80
2018-09-11T14:35:05.231Z,2.80
2018-09-11T14:37:34.485Z,2.72
2018-09-11T14:40:03.799Z,3.10
2018-09-11T14:42:33.100Z,2.77
2018-09-11T14:45:02.362Z,2.47
2018-09-11T14:47:36.816Z,2.70
2018-09-11T14:50:06.128Z,2.70
2018-09-11T14:52:35.493Z,2.58
2018-09-11T14:55:04.792Z,2.77
2018-09-11T14:57:34.360Z,2.22
2018-09-11T15:00:03.750Z,2.92
2018-09-11T15:02:33.012Z,3.02
2018-09-11T15:05:02.388Z,2.58
2018-09-11T15:07:31.662Z,2.80
2018-09-11T15:10:00.914Z,2.80
2018-09-11T15:12:30.156Z,2.70
2018-09-11T15:14:59.444Z,2.60
2018-09-11T15:17:28.727Z,2.85
2018-09-11T15:19:57.911Z,2.52
2018-09-11T15:22:27.119Z,2.80
2018-09-11T15:24:56.493Z,2.75
2018-09-11T15:44:50.994Z,2.45
2018-09-11T15:47:20.264Z,2.72
2018-09-11T15:49:49.484Z,2.67
2018-09-11T15:52:18.766Z,2.62
2018-09-11T15:54:47.959Z,2.65
2018-09-11T15:57:17.300Z,2.50
2018-09-11T15:59:46.494Z,2.80
2018-09-11T16:02:15.995Z,2.85
2018-09-11T16:04:45.291Z,2.45
2018-09-11T16:07:14.596Z,2.60
2018-09-11T16:09:43.809Z,2.72
2018-09-11T16:12:13.092Z,2.40
2018-09-11T16:14:42.336Z,2.27
2018-09-11T16:17:11.519Z,2.52
2018-09-11T16:19:40.703Z,2.47
2018-09-11T16:22:10.064Z,2.10
2018-09-11T16:24:44.440Z,2.67
2018-09-11T16:27:14.236Z,2.08
2018-09-11T16:29:43.531Z,2.77
2018-09-11T16:32:12.886Z,2.40
2018-09-11T16:34:42.364Z,2.50
2018-09-11T16:37:11.680Z,2.75
2018-09-11T16:39:40.955Z,2.58
2018-09-11T16:42:10.275Z,2.10
2018-09-11T16:44:39.539Z,2.70
2018-09-11T16:47:08.720Z,2.37
2018-09-11T16:49:38.025Z,2.08
2018-09-11T16:52:07.284Z,2.08
2018-09-11T16:54:36.606Z,2.30
2018-09-11T16:57:05.979Z,2.47
2018-09-11T16:59:35.164Z,2.30
2018-09-11T17:02:04.472Z,2.70
2018-09-11T17:04:33.642Z,2.30
2018-09-11T17:07:02.907Z,2.60
2018-09-11T17:09:32.204Z,2.53
2018-09-11T17:12:01.462Z,2.33
2018-09-11T17:14:30.720Z,2.53
2018-09-11T17:16:59.980Z,2.50
2018-09-11T17:19:29.299Z,2.43
2018-09-11T17:21:58.562Z,2.67
2018-09-11T17:24:27.766Z,2.40
2018-09-11T17:26:56.979Z,2.60
2018-09-11T17:29:26.239Z,2.47
2018-09-11T17:31:56.123Z,2.60
2018-09-11T17:34:25.418Z,2.77
2018-09-11T17:36:54.628Z,2.60
2018-09-11T17:39:23.960Z,2.37
2018-09-11T17:41:53.199Z,2.70
2018-09-11T17:44:22.455Z,2.60
2018-09-11T17:46:51.690Z,2.37
2018-09-11T17:49:20.872Z,2.30
2018-09-11T17:51:50.265Z,2.70
2018-09-11T17:54:19.455Z,2.63
2018-09-11T17:56:48.648Z,2.93
2018-09-11T17:59:17.954Z,3.03
2018-09-11T18:01:47.161Z,2.73
2018-09-11T18:04:16.383Z,2.80
2018-09-11T18:06:45.552Z,2.53
2018-09-11T18:09:14.828Z,2.40
2018-09-11T18:11:44.045Z,2.53
2018-09-11T18:14:13.299Z,2.60
2018-09-11T18:16:42.467Z,3.13
2018-09-11T18:19:11.736Z,3.03
2018-09-11T18:21:40.995Z,2.73
2018-09-11T18:24:10.296Z,3.03
2018-09-11T18:26:39.560Z,2.60
2018-09-11T18:29:08.829Z,2.60
2018-09-11T18:31:38.279Z,2.60
2018-09-11T18:34:07.646Z,2.90
2018-09-11T18:36:36.913Z,2.80
2018-09-11T18:39:07.937Z,2.73
2018-09-11T18:41:37.213Z,2.73
2018-09-11T18:44:06.696Z,3.10
2018-09-11T18:46:35.927Z,2.80
2018-09-11T18:49:17.156Z,3.73
2018-09-11T18:51:46.556Z,4.07
2018-09-11T18:54:15.892Z,3.27
2018-09-11T18:56:45.147Z,3.17
2018-09-11T18:59:14.425Z,3.10
2018-09-11T19:01:43.660Z,2.90
2018-09-11T19:04:12.998Z,2.70
2018-09-11T19:06:42.296Z,2.70
2018-09-11T19:09:12.447Z,2.60
2018-09-11T19:11:43.198Z,2.50
2018-09-11T19:14:13.184Z,2.60
2018-09-11T19:16:42.443Z,2.57
2018-09-11T19:19:11.727Z,2.80
2018-09-11T19:21:40.960Z,2.80
2018-09-11T19:24:10.213Z,2.70
2018-09-11T19:26:39.599Z,2.77
2018-09-11T19:29:08.882Z,3.80
2018-09-11T19:31:38.133Z,2.80
2018-09-11T19:34:07.510Z,3.00
2018-09-11T19:36:36.808Z,3.60
2018-09-11T19:39:08.908Z,3.07
2018-09-11T19:41:38.830Z,2.63
2018-09-11T19:44:08.199Z,3.00
2018-09-11T19:46:37.788Z,3.33
2018-09-11T19:49:07.162Z,2.90
2018-09-11T19:51:36.561Z,2.70
2018-09-11T19:54:05.971Z,2.80
2018-09-11T19:56:35.212Z,2.60
2018-09-11T19:59:04.488Z,2.67
2018-09-11T20:01:39.788Z,2.80
2018-09-11T20:04:09.064Z,2.57
2018-09-11T20:06:38.313Z,2.53
2018-09-11T20:09:10.590Z,3.20
2018-09-11T20:11:40.071Z,2.97
2018-09-11T20:14:09.303Z,2.90
2018-09-11T20:16:38.796Z,3.27
2018-09-11T20:19:09.372Z,2.80
2018-09-11T20:21:38.701Z,3.00
2018-09-11T20:24:07.928Z,2.93
2018-09-11T20:26:37.175Z,2.80
2018-09-11T20:29:06.400Z,2.87
2018-09-11T20:31:35.663Z,3.07
2018-09-11T20:34:04.986Z,2.80
2018-09-11T20:36:34.272Z,2.60
2018-09-11T20:39:04.863Z,2.97
2018-09-11T20:41:34.217Z,2.60
2018-09-11T20:44:03.551Z,2.90
2018-09-11T20:46:32.908Z,2.87
2018-09-11T20:49:02.195Z,2.77
2018-09-11T20:51:31.469Z,2.70
2018-09-11T20:54:00.739Z,2.43
2018-09-11T20:56:30.000Z,2.70
2018-09-11T20:58:59.355Z,2.80
2018-09-11T21:01:28.583Z,3.00
2018-09-11T21:03:57.872Z,3.03
2018-09-11T21:06:27.170Z,3.07
2018-09-11T21:08:56.396Z,2.60
2018-09-11T21:11:25.639Z,2.93
2018-09-11T21:13:54.896Z,3.00
2018-09-11T21:16:24.176Z,2.77
2018-09-11T21:18:53.388Z,3.00
2018-09-11T21:21:23.868Z,2.97
2018-09-11T21:23:53.088Z,3.10
2018-09-11T21:26:22.499Z,2.93
2018-09-11T21:28:52.759Z,3.10
2018-09-11T21:31:21.980Z,3.10
2018-09-11T21:33:51.324Z,3.20
2018-09-11T21:36:20.650Z,2.80
2018-09-11T21:38:50.263Z,2.60
2018-09-11T21:41:19.498Z,3.10
2018-09-11T21:43:48.734Z,2.87
2018-09-11T21:46:17.956Z,2.57
2018-09-11T21:48:47.177Z,2.80
2018-09-11T21:51:16.372Z,3.23
2018-09-11T21:53:45.698Z,2.73
2018-09-11T21:56:14.963Z,2.73
2018-09-11T21:58:44.227Z,2.87
2018-09-11T22:02:20.381Z,2.97
2018-09-11T22:04:49.596Z,2.37
2018-09-11T22:07:18.891Z,3.13
2018-09-11T22:09:48.152Z,2.80
2018-09-11T22:12:17.362Z,2.77
2018-09-11T22:14:46.583Z,2.83
2018-09-11T22:17:15.815Z,3.00
2018-09-11T22:19:45.067Z,2.63
2018-09-11T22:22:14.312Z,2.93
2018-09-11T22:24:43.572Z,2.70
2018-09-11T22:27:12.922Z,3.00
2018-09-11T22:29:43.155Z,2.83
2018-09-11T22:32:12.408Z,2.87
2018-09-11T22:34:41.712Z,2.93
2018-09-11T22:37:10.987Z,3.07
2018-09-11T22:39:40.172Z,2.80
2018-09-11T22:42:09.420Z,3.27
2018-09-11T22:44:38.733Z,3.20
2018-09-11T22:47:07.947Z,2.70
2018-09-11T22:49:37.230Z,3.00
2018-09-11T22:52:06.683Z,2.80
2018-09-11T22:54:35.895Z,2.73
2018-09-11T22:57:05.243Z,3.03
2018-09-11T22:59:34.618Z,3.20
2018-09-11T23:02:03.943Z,3.00
2018-09-11T23:04:33.211Z,2.83
2018-09-11T23:07:02.345Z,2.93
2018-09-11T23:09:31.663Z,2.87
2018-09-11T23:12:00.918Z,2.80
2018-09-11T23:14:30.184Z,2.57
2018-09-11T23:16:59.567Z,2.80
2018-09-11T23:19:28.770Z,2.67
2018-09-11T23:21:58.030Z,2.90
2018-09-11T23:24:27.260Z,3.13
2018-09-11T23:26:56.505Z,3.10
2018-09-11T23:29:25.820Z,3.07
2018-09-11T23:31:55.088Z,2.90
2018-09-11T23:34:24.430Z,2.83
2018-09-11T23:36:53.653Z,2.80
2018-09-11T23:39:22.947Z,2.60
2018-09-11T23:41:52.182Z,3.13
2018-09-11T23:44:21.549Z,3.10
2018-09-11T23:46:50.851Z,2.57
2018-09-11T23:49:20.073Z,3.10
2018-09-11T23:51:49.351Z,3.00
2018-09-11T23:54:18.620Z,3.10
2018-09-11T23:56:47.845Z,2.90
2018-09-11T23:59:17.098Z,3.13
